createdAt,value
2017-03-25T00:01:05.949Z,19.63
2017-03-25T00:02:16.192Z,19.67
2017-03-25T00:03:26.462Z,19.71
2017-03-25T00:04:36.733Z,19.71
2017-03-25T00:05:46.992Z,19.7
2017-03-25T00:06:56.943Z,19.71
2017-03-25T00:08:06.894Z,19.74
2017-03-25T00:09:17.165Z,19.71
2017-03-25T00:10:27.116Z,19.66
2017-03-25T00:11:37.392Z,19.66
2017-03-25T00:12:47.666Z,19.7
2017-03-25T00:13:57.880Z,19.66
2017-03-25T00:15:08.151Z,19.71
2017-03-25T00:16:18.421Z,19.6
2017-03-25T00:17:28.386Z,19.64
2017-03-25T00:18:38.663Z,19.66
2017-03-25T00:21:36.268Z,19.64
2017-03-25T00:22:45.917Z,19.56
2017-03-25T00:23:55.583Z,19.63
2017-03-25T00:25:05.553Z,19.66
2017-03-25T00:26:15.816Z,19.57
2017-03-25T00:27:25.769Z,19.57
2017-03-25T00:28:36.047Z,19.63
2017-03-25T00:29:46.324Z,19.63
2017-03-25T00:30:55.986Z,19.59
2017-03-25T00:32:06.191Z,19.6
2017-03-25T00:33:15.840Z,19.6
2017-03-25T00:34:25.797Z,19.66
2017-03-25T00:35:35.454Z,19.6
2017-03-25T00:36:45.093Z,19.59
2017-03-25T00:37:55.299Z,19.6
2017-03-25T00:39:05.575Z,19.57
2017-03-25T00:40:15.214Z,19.52
2017-03-25T00:41:25.173Z,19.62
2017-03-25T00:42:34.819Z,19.52
2017-03-25T00:43:45.345Z,19.6
2017-03-25T00:44:55.619Z,19.57
2017-03-25T00:46:05.884Z,19.6
2017-03-25T00:47:15.219Z,19.49
2017-03-25T00:48:25.190Z,19.59
2017-03-25T00:49:35.399Z,19.56
2017-03-25T00:50:45.667Z,19.59
2017-03-25T00:51:55.319Z,19.55
2017-03-25T00:53:05.274Z,19.62
2017-03-25T00:54:15.230Z,19.64
2017-03-25T00:55:25.129Z,19.52
2017-03-25T00:56:35.429Z,19.52
2017-03-25T00:57:45.381Z,19.56
2017-03-25T00:58:55.640Z,19.59
2017-03-25T01:00:05.617Z,19.55
2017-03-25T01:01:15.834Z,19.57
2017-03-25T01:02:26.105Z,19.57
2017-03-25T01:03:36.074Z,19.57
2017-03-25T01:04:46.387Z,19.59
2017-03-25T01:05:56.343Z,19.45
2017-03-25T01:07:06.550Z,19.48
2017-03-25T01:08:16.822Z,19.57
2017-03-25T01:09:27.094Z,19.59
2017-03-25T01:10:37.052Z,19.52
2017-03-25T01:11:47.007Z,19.56
2017-03-25T01:12:57.210Z,19.6
2017-03-25T01:14:07.536Z,19.64
2017-03-25T01:15:17.802Z,19.53
2017-03-25T01:16:27.448Z,19.57
2017-03-25T01:17:37.403Z,19.52
2017-03-25T01:18:47.664Z,19.52
2017-03-25T01:19:57.945Z,19.56
2017-03-25T01:21:07.901Z,19.52
2017-03-25T01:22:17.854Z,19.56
2017-03-25T01:23:28.127Z,19.52
2017-03-25T01:24:38.340Z,19.55
2017-03-25T01:25:48.294Z,19.53
2017-03-25T01:26:58.563Z,19.42
2017-03-25T01:28:08.525Z,19.55
2017-03-25T01:29:18.479Z,19.42
2017-03-25T01:30:29.006Z,19.55
2017-03-25T01:31:38.976Z,19.56
2017-03-25T01:32:48.929Z,19.44
2017-03-25T01:33:58.880Z,19.47
2017-03-25T01:35:09.156Z,19.49
2017-03-25T01:36:19.358Z,19.56
2017-03-25T01:37:29.311Z,19.44
2017-03-25T01:38:39.277Z,19.48
2017-03-25T01:39:49.228Z,19.55
2017-03-25T01:40:59.500Z,19.45
2017-03-25T01:42:09.403Z,19.41
2017-03-25T01:43:19.041Z,19.52
2017-03-25T01:44:28.679Z,19.49
2017-03-25T01:45:38.331Z,19.56
2017-03-25T01:46:48.641Z,19.56
2017-03-25T01:47:58.846Z,19.49
2017-03-25T01:49:09.113Z,19.47
2017-03-25T01:50:19.397Z,19.53
2017-03-25T01:51:29.664Z,19.59
2017-03-25T01:52:39.937Z,19.59
2017-03-25T01:53:50.450Z,19.56
2017-03-25T01:55:00.722Z,19.55
2017-03-25T01:56:10.677Z,19.45
2017-03-25T01:57:20.964Z,19.47
2017-03-25T01:58:31.235Z,19.47
2017-03-25T01:59:41.777Z,19.49
2017-03-25T02:00:51.726Z,19.44
2017-03-25T02:02:01.677Z,19.41
2017-03-25T02:03:11.638Z,19.41
2017-03-25T02:04:21.593Z,19.48
2017-03-25T02:05:31.795Z,19.42
2017-03-25T02:06:42.068Z,19.47
2017-03-25T02:07:52.024Z,19.41
2017-03-25T02:09:02.311Z,19.48
2017-03-25T02:10:12.575Z,19.52
2017-03-25T02:11:22.781Z,19.44
2017-03-25T02:12:32.436Z,19.39
2017-03-25T02:13:42.699Z,19.45
2017-03-25T02:14:52.961Z,19.52
2017-03-25T02:16:03.235Z,19.48
2017-03-25T02:17:13.123Z,19.42
2017-03-25T02:18:23.102Z,19.48
2017-03-25T02:19:33.061Z,19.48
2017-03-25T02:20:43.021Z,19.45
2017-03-25T02:21:53.290Z,19.48
2017-03-25T02:23:03.805Z,19.44
2017-03-25T02:24:13.443Z,19.41
2017-03-25T02:25:23.398Z,19.45
2017-03-25T02:26:33.375Z,19.52
2017-03-25T02:27:43.339Z,19.44
2017-03-25T02:28:53.267Z,19.45
2017-03-25T02:30:03.223Z,19.45
2017-03-25T02:31:13.181Z,19.45
2017-03-25T02:32:23.444Z,19.47
2017-03-25T02:33:33.125Z,19.49
2017-03-25T02:34:43.641Z,19.49
2017-03-25T02:35:52.980Z,19.42
2017-03-25T02:37:02.943Z,19.44
2017-03-25T02:38:12.901Z,19.47
2017-03-25T02:39:23.170Z,19.48
2017-03-25T02:40:33.372Z,19.48
2017-03-25T02:41:43.329Z,19.52
2017-03-25T02:42:53.594Z,19.44
2017-03-25T02:44:03.249Z,19.47
2017-03-25T02:45:13.514Z,19.49
2017-03-25T02:46:24.039Z,19.44
2017-03-25T02:47:34.038Z,19.47
2017-03-25T02:48:44.305Z,19.49
2017-03-25T02:49:54.266Z,19.52
2017-03-25T02:51:04.532Z,19.52
2017-03-25T02:52:14.793Z,19.48
2017-03-25T02:53:24.757Z,19.44
2017-03-25T02:54:35.037Z,19.48
2017-03-25T02:55:45.316Z,19.49
2017-03-25T02:56:55.592Z,19.47
2017-03-25T02:58:06.121Z,19.55
2017-03-25T02:59:16.391Z,19.39
2017-03-25T03:00:26.148Z,19.42
2017-03-25T03:01:36.416Z,19.39
2017-03-25T03:02:46.381Z,19.41
2017-03-25T03:03:56.904Z,19.37
2017-03-25T03:05:06.569Z,19.37
2017-03-25T03:06:16.851Z,19.48
2017-03-25T03:07:27.126Z,19.35
2017-03-25T03:08:37.083Z,19.37
2017-03-25T03:09:47.305Z,19.34
2017-03-25T03:10:57.575Z,19.45
2017-03-25T03:12:07.536Z,19.37
2017-03-25T03:13:17.189Z,19.38
2017-03-25T03:14:27.146Z,19.35
2017-03-25T03:15:37.357Z,19.34
2017-03-25T03:16:47.319Z,19.34
2017-03-25T03:17:57.600Z,19.35
2017-03-25T03:19:07.872Z,19.37
2017-03-25T03:20:17.521Z,19.35
2017-03-25T03:21:27.729Z,19.32
2017-03-25T03:22:37.699Z,19.35
2017-03-25T03:23:47.974Z,19.37
2017-03-25T03:24:58.251Z,19.3
2017-03-25T03:26:08.216Z,19.35
2017-03-25T03:27:18.726Z,19.35
2017-03-25T03:28:28.698Z,19.38
2017-03-25T03:29:38.350Z,19.32
2017-03-25T03:30:48.305Z,19.35
2017-03-25T03:31:57.960Z,19.38
2017-03-25T03:33:08.171Z,19.35
2017-03-25T03:34:18.447Z,19.37
2017-03-25T03:35:28.726Z,19.34
2017-03-25T03:36:39.002Z,19.32
2017-03-25T03:37:49.277Z,19.38
2017-03-25T03:38:59.511Z,19.32
2017-03-25T03:40:09.468Z,19.38
2017-03-25T03:41:19.439Z,19.35
2017-03-25T03:42:29.459Z,19.39
2017-03-25T03:43:39.420Z,19.37
2017-03-25T03:44:49.941Z,19.32
2017-03-25T03:46:00.221Z,19.38
2017-03-25T03:47:09.559Z,19.32
2017-03-25T03:48:19.838Z,19.35
2017-03-25T03:49:30.111Z,19.32
2017-03-25T03:50:40.679Z,19.39
2017-03-25T03:51:50.941Z,19.3
2017-03-25T03:53:00.897Z,19.37
2017-03-25T03:54:11.171Z,19.34
2017-03-25T03:55:21.501Z,19.34
2017-03-25T03:56:32.013Z,19.27
2017-03-25T03:57:41.981Z,19.38
2017-03-25T03:58:52.253Z,19.35
2017-03-25T04:00:02.510Z,19.3
2017-03-25T04:01:12.775Z,19.38
2017-03-25T04:02:22.985Z,19.38
2017-03-25T04:03:32.949Z,19.27
2017-03-25T04:04:43.219Z,19.3
2017-03-25T04:05:53.186Z,19.35
2017-03-25T04:07:03.453Z,19.34
2017-03-25T04:08:14.026Z,19.3
2017-03-25T04:09:24.306Z,19.41
2017-03-25T04:10:34.583Z,19.38
2017-03-25T04:11:44.546Z,19.3
2017-03-25T04:12:54.502Z,19.35
2017-03-25T04:14:04.718Z,19.37
2017-03-25T04:15:14.686Z,19.38
2017-03-25T04:16:24.642Z,19.35
2017-03-25T04:17:34.919Z,19.35
2017-03-25T04:18:45.196Z,19.35
2017-03-25T04:19:55.109Z,19.39
2017-03-25T04:21:05.380Z,19.37
2017-03-25T04:22:15.347Z,19.3
2017-03-25T04:23:25.309Z,19.35
2017-03-25T04:24:35.587Z,19.34
2017-03-25T04:25:45.800Z,19.34
2017-03-25T04:26:56.090Z,19.27
2017-03-25T04:28:05.748Z,19.24
2017-03-25T04:29:16.031Z,19.29
2017-03-25T04:30:26.031Z,19.41
2017-03-25T04:31:36.559Z,19.3
2017-03-25T04:32:46.826Z,19.27
2017-03-25T04:33:57.097Z,19.32
2017-03-25T04:35:07.373Z,19.3
2017-03-25T04:36:17.653Z,19.29
2017-03-25T04:37:28.180Z,19.3
2017-03-25T04:38:38.460Z,19.27
2017-03-25T04:39:47.795Z,19.29
2017-03-25T04:40:57.761Z,19.27
2017-03-25T04:42:08.044Z,19.23
2017-03-25T04:43:18.315Z,19.29
2017-03-25T04:44:28.652Z,19.29
2017-03-25T04:45:38.604Z,19.24
2017-03-25T04:46:48.881Z,19.22
2017-03-25T04:47:59.158Z,19.29
2017-03-25T04:49:09.733Z,19.27
2017-03-25T04:50:20.056Z,19.23
2017-03-25T04:51:30.008Z,19.32
2017-03-25T04:52:39.968Z,19.24
2017-03-25T04:53:50.244Z,19.3
2017-03-25T04:55:00.193Z,19.29
2017-03-25T04:56:10.152Z,19.3
2017-03-25T04:57:20.425Z,19.24
2017-03-25T04:58:30.699Z,19.27
2017-03-25T04:59:40.653Z,19.26
2017-03-25T05:00:51.170Z,19.27
2017-03-25T05:02:01.126Z,19.24
2017-03-25T05:03:11.391Z,19.29
2017-03-25T05:04:21.673Z,19.27
2017-03-25T05:05:31.640Z,19.3
2017-03-25T05:06:41.846Z,19.27
2017-03-25T05:07:51.802Z,19.34
2017-03-25T05:09:01.481Z,19.29
2017-03-25T05:10:11.758Z,19.27
2017-03-25T05:11:22.027Z,19.3
2017-03-25T05:12:32.231Z,19.3
2017-03-25T05:13:41.898Z,19.24
2017-03-25T05:14:52.164Z,19.34
2017-03-25T05:16:02.437Z,19.34
2017-03-25T05:17:12.391Z,19.29
2017-03-25T05:18:22.602Z,19.32
2017-03-25T05:19:32.865Z,19.3
2017-03-25T05:20:43.139Z,19.34
2017-03-25T05:21:53.101Z,19.3
2017-03-25T05:23:03.066Z,19.35
2017-03-25T05:24:13.643Z,19.41
2017-03-25T05:25:23.914Z,19.34
2017-03-25T05:26:33.560Z,19.26
2017-03-25T05:27:43.229Z,19.39
2017-03-25T05:28:53.497Z,19.35
2017-03-25T05:30:04.075Z,19.32
2017-03-25T05:31:14.346Z,19.35
2017-03-25T05:32:23.991Z,19.42
2017-03-25T05:33:34.261Z,19.3
2017-03-25T05:34:44.222Z,19.32
2017-03-25T05:35:54.748Z,19.38
2017-03-25T05:37:04.721Z,19.35
2017-03-25T05:38:14.983Z,19.34
2017-03-25T05:39:25.259Z,19.42
2017-03-25T05:40:35.277Z,19.32
2017-03-25T05:41:45.490Z,19.35
2017-03-25T05:42:55.775Z,19.32
2017-03-25T05:44:06.051Z,19.32
2017-03-25T05:45:16.008Z,19.37
2017-03-25T05:46:25.967Z,19.38
2017-03-25T05:47:36.172Z,19.32
2017-03-25T05:48:46.434Z,19.37
2017-03-25T05:49:56.088Z,19.41
2017-03-25T05:51:06.361Z,19.3
2017-03-25T05:52:16.629Z,19.37
2017-03-25T05:53:26.844Z,19.41
2017-03-25T05:54:37.136Z,19.37
2017-03-25T05:55:47.108Z,19.38
2017-03-25T05:56:56.759Z,19.37
2017-03-25T05:58:07.037Z,19.32
2017-03-25T05:59:17.558Z,19.39
2017-03-25T06:00:27.523Z,19.38
2017-03-25T06:01:37.476Z,19.38
2017-03-25T06:02:47.441Z,19.38
2017-03-25T06:03:57.411Z,19.32
2017-03-25T06:05:07.638Z,19.35
2017-03-25T06:06:17.600Z,19.39
2017-03-25T06:07:27.867Z,19.38
2017-03-25T06:08:37.839Z,19.38
2017-03-25T06:09:47.817Z,19.41
2017-03-25T06:10:58.349Z,19.39
2017-03-25T06:12:08.627Z,19.34
2017-03-25T06:13:18.901Z,19.35
2017-03-25T06:14:29.178Z,19.34
2017-03-25T06:15:39.142Z,19.42
2017-03-25T06:16:49.358Z,19.38
2017-03-25T06:17:59.021Z,19.37
2017-03-25T06:19:08.679Z,19.37
2017-03-25T06:20:18.026Z,19.39
2017-03-25T06:21:28.297Z,19.35
2017-03-25T06:22:39.022Z,19.39
2017-03-25T06:23:49.000Z,19.41
2017-03-25T06:24:58.969Z,19.39
2017-03-25T06:26:09.254Z,19.42
2017-03-25T06:27:19.519Z,19.48
2017-03-25T06:28:29.812Z,19.44
2017-03-25T06:29:39.789Z,19.45
2017-03-25T06:30:50.078Z,19.37
2017-03-25T06:32:00.043Z,19.47
2017-03-25T06:33:10.313Z,19.48
2017-03-25T06:34:19.906Z,19.42
2017-03-25T06:35:30.177Z,19.52
2017-03-25T06:36:40.130Z,19.39
2017-03-25T06:37:50.089Z,19.48
2017-03-25T06:39:00.100Z,19.48
2017-03-25T06:40:10.323Z,19.45
2017-03-25T06:41:19.670Z,19.52
2017-03-25T06:42:29.320Z,19.44
2017-03-25T06:43:39.603Z,19.48
2017-03-25T06:44:49.886Z,19.52
2017-03-25T06:46:00.144Z,19.39
2017-03-25T06:47:10.434Z,19.49
2017-03-25T06:48:20.400Z,19.49
2017-03-25T06:49:30.379Z,19.48
2017-03-25T06:50:40.670Z,19.44
2017-03-25T06:51:50.625Z,19.48
2017-03-25T06:53:00.580Z,19.48
2017-03-25T06:54:10.233Z,19.41
2017-03-25T06:55:19.871Z,19.42
2017-03-25T06:56:30.155Z,19.48
2017-03-25T06:57:40.439Z,19.38
2017-03-25T06:58:50.404Z,19.45
2017-03-25T06:59:59.739Z,19.48
2017-03-25T07:01:09.711Z,19.45
2017-03-25T07:02:19.674Z,19.45
2017-03-25T07:03:29.881Z,19.39
2017-03-25T07:04:40.153Z,19.45
2017-03-25T07:05:50.894Z,19.48
2017-03-25T07:07:00.859Z,19.55
2017-03-25T07:08:10.820Z,19.39
2017-03-25T07:09:21.040Z,19.45
2017-03-25T07:10:31.005Z,19.41
2017-03-25T07:11:40.655Z,19.44
2017-03-25T07:12:50.613Z,19.45
2017-03-25T07:14:00.891Z,19.45
2017-03-25T07:15:11.416Z,19.44
2017-03-25T07:16:21.373Z,19.45
2017-03-25T07:17:31.019Z,19.48
2017-03-25T07:18:41.302Z,19.48
2017-03-25T07:19:51.157Z,19.52
2017-03-25T07:21:01.697Z,19.45
2017-03-25T07:22:11.969Z,19.44
2017-03-25T07:23:22.258Z,19.53
2017-03-25T07:24:32.221Z,19.44
2017-03-25T07:25:41.553Z,19.56
2017-03-25T07:26:52.078Z,19.56
2017-03-25T07:28:02.359Z,19.52
2017-03-25T07:29:12.638Z,19.59
2017-03-25T07:30:22.607Z,19.52
2017-03-25T07:31:32.875Z,19.57
2017-03-25T07:32:42.778Z,19.53
2017-03-25T07:33:52.751Z,19.53
2017-03-25T07:35:03.016Z,19.59
2017-03-25T07:36:12.977Z,19.42
2017-03-25T07:37:22.941Z,19.55
2017-03-25T07:38:33.476Z,19.56
2017-03-25T07:39:43.444Z,19.56
2017-03-25T07:40:53.718Z,19.44
2017-03-25T07:42:03.683Z,19.57
2017-03-25T07:43:13.643Z,19.55
2017-03-25T07:44:23.560Z,19.55
2017-03-25T07:45:33.563Z,19.53
2017-03-25T07:46:42.891Z,19.56
2017-03-25T07:47:52.538Z,19.56
2017-03-25T07:49:02.822Z,19.6
2017-03-25T07:50:13.045Z,19.57
2017-03-25T07:51:23.322Z,19.57
2017-03-25T07:52:33.290Z,19.57
2017-03-25T07:53:43.578Z,19.6
2017-03-25T07:54:53.863Z,19.53
2017-03-25T07:56:04.398Z,19.57
2017-03-25T07:57:14.375Z,19.57
2017-03-25T07:58:24.360Z,19.55
2017-03-25T07:59:34.334Z,19.6
2017-03-25T08:00:44.604Z,19.53
2017-03-25T08:01:55.140Z,19.52
2017-03-25T08:03:05.418Z,19.56
2017-03-25T08:04:15.712Z,19.62
2017-03-25T08:05:25.983Z,19.6
2017-03-25T08:06:35.944Z,19.6
2017-03-25T08:07:46.235Z,19.62
2017-03-25T08:08:56.216Z,19.55
2017-03-25T08:10:06.480Z,19.56
2017-03-25T08:11:16.441Z,19.66
2017-03-25T08:12:26.108Z,19.57
2017-03-25T08:13:36.317Z,19.66
2017-03-25T08:14:46.284Z,19.56
2017-03-25T08:15:56.258Z,19.64
2017-03-25T08:17:06.235Z,19.63
2017-03-25T08:18:16.208Z,19.6
2017-03-25T08:19:26.167Z,19.63
2017-03-25T08:20:36.450Z,19.6
2017-03-25T08:21:46.416Z,19.62
2017-03-25T08:22:56.068Z,19.63
2017-03-25T08:24:06.341Z,19.6
2017-03-25T08:25:16.883Z,19.67
2017-03-25T08:26:27.161Z,19.67
2017-03-25T08:27:37.438Z,19.72
2017-03-25T08:28:47.413Z,19.67
2017-03-25T08:29:57.705Z,19.66
2017-03-25T08:31:07.962Z,19.71
2017-03-25T08:32:17.939Z,19.63
2017-03-25T08:33:28.218Z,19.63
2017-03-25T08:34:38.187Z,19.67
2017-03-25T08:35:48.465Z,19.71
2017-03-25T08:36:58.725Z,19.6
2017-03-25T08:38:08.996Z,19.7
2017-03-25T08:39:18.962Z,19.71
2017-03-25T08:40:28.607Z,19.71
2017-03-25T08:41:38.886Z,19.7
2017-03-25T08:42:49.101Z,19.77
2017-03-25T08:43:59.422Z,19.71
2017-03-25T08:45:09.402Z,19.7
2017-03-25T08:46:19.361Z,19.64
2017-03-25T08:47:29.325Z,19.71
2017-03-25T08:48:39.548Z,19.75
2017-03-25T08:49:49.530Z,19.7
2017-03-25T08:50:59.509Z,19.66
2017-03-25T08:52:09.163Z,19.75
2017-03-25T08:53:19.137Z,19.64
2017-03-25T08:54:29.664Z,19.66
2017-03-25T08:55:39.958Z,19.71
2017-03-25T08:56:49.916Z,19.78
2017-03-25T08:57:59.885Z,19.72
2017-03-25T08:59:09.845Z,19.71
2017-03-25T09:00:20.383Z,19.72
2017-03-25T09:01:30.035Z,19.72
2017-03-25T09:02:40.314Z,19.72
2017-03-25T09:03:50.594Z,19.72
2017-03-25T09:05:00.880Z,19.71
2017-03-25T09:06:11.402Z,19.72
2017-03-25T09:07:20.433Z,19.71
2017-03-25T09:08:30.409Z,19.74
2017-03-25T09:09:40.687Z,19.7
2017-03-25T09:10:50.331Z,19.71
2017-03-25T09:12:00.863Z,19.71
2017-03-25T09:13:10.828Z,19.78
2017-03-25T09:14:20.797Z,19.72
2017-03-25T09:15:30.160Z,19.75
2017-03-25T09:16:40.128Z,19.74
2017-03-25T09:17:50.647Z,19.78
2017-03-25T09:19:00.928Z,19.77
2017-03-25T09:20:11.226Z,19.85
2017-03-25T09:21:21.535Z,19.82
2017-03-25T09:22:31.510Z,19.71
2017-03-25T09:23:42.090Z,19.75
2017-03-25T09:24:52.064Z,19.85
2017-03-25T09:26:02.352Z,19.77
2017-03-25T09:27:12.621Z,19.75
2017-03-25T09:28:22.898Z,19.75
2017-03-25T09:29:33.448Z,19.74
2017-03-25T09:30:43.420Z,19.72
2017-03-25T09:31:53.380Z,19.84
2017-03-25T09:33:03.353Z,19.81
2017-03-25T09:34:13.629Z,19.81
2017-03-25T09:35:23.848Z,19.81
2017-03-25T09:36:33.819Z,19.79
2017-03-25T09:37:43.778Z,19.82
2017-03-25T09:38:53.747Z,19.81
2017-03-25T09:40:03.714Z,19.82
2017-03-25T09:41:13.930Z,19.85
2017-03-25T09:42:23.577Z,19.85
2017-03-25T09:43:33.862Z,19.82
2017-03-25T09:44:44.148Z,19.81
2017-03-25T09:45:54.438Z,19.78
2017-03-25T09:47:05.063Z,19.84
2017-03-25T09:48:14.729Z,19.78
2017-03-25T09:49:25.017Z,19.89
2017-03-25T09:50:34.366Z,19.84
2017-03-25T09:51:44.655Z,19.85
2017-03-25T09:52:54.609Z,19.82
2017-03-25T09:54:04.898Z,19.81
2017-03-25T09:55:14.565Z,19.85
2017-03-25T09:56:24.855Z,19.78
2017-03-25T09:57:35.142Z,19.78
2017-03-25T09:58:45.731Z,19.78
2017-03-25T09:59:55.389Z,19.75
2017-03-25T10:01:05.676Z,19.77
2017-03-25T10:02:15.995Z,19.79
2017-03-25T10:03:26.019Z,19.84
2017-03-25T10:04:36.302Z,19.81
2017-03-25T10:05:46.577Z,19.84
2017-03-25T10:06:56.233Z,19.78
2017-03-25T10:08:06.502Z,19.89
2017-03-25T10:09:16.786Z,19.84
2017-03-25T10:10:27.317Z,19.9
2017-03-25T10:11:37.275Z,19.9
2017-03-25T10:12:47.557Z,19.85
2017-03-25T10:13:57.530Z,19.85
2017-03-25T10:15:07.803Z,19.85
2017-03-25T10:16:17.705Z,19.87
2017-03-25T10:17:27.991Z,19.81
2017-03-25T10:18:38.281Z,19.92
2017-03-25T10:19:48.626Z,19.87
2017-03-25T10:20:58.913Z,19.85
2017-03-25T10:22:09.492Z,19.84
2017-03-25T10:23:19.140Z,19.87
2017-03-25T10:24:29.420Z,19.87
2017-03-25T10:25:39.379Z,19.84
2017-03-25T10:26:49.651Z,19.89
2017-03-25T10:28:00.183Z,19.85
2017-03-25T10:29:10.463Z,19.85
2017-03-25T10:30:20.730Z,19.93
2017-03-25T10:31:30.699Z,19.82
2017-03-25T10:32:40.674Z,19.92
2017-03-25T10:33:50.642Z,19.84
2017-03-25T10:35:00.620Z,19.82
2017-03-25T10:36:10.899Z,19.85
2017-03-25T10:37:20.872Z,19.89
2017-03-25T10:38:31.152Z,19.84
2017-03-25T10:39:41.670Z,19.85
2017-03-25T10:40:51.318Z,19.85
2017-03-25T10:42:01.586Z,19.82
2017-03-25T10:43:11.593Z,19.82
2017-03-25T10:44:21.874Z,19.84
2017-03-25T10:45:32.156Z,19.87
2017-03-25T10:46:42.115Z,19.87
2017-03-25T10:47:52.078Z,19.89
2017-03-25T10:49:02.051Z,19.89
2017-03-25T10:50:11.705Z,19.87
2017-03-25T10:51:21.606Z,19.82
2017-03-25T10:52:31.257Z,19.92
2017-03-25T10:53:41.242Z,19.85
2017-03-25T10:54:51.216Z,19.89
2017-03-25T10:56:01.494Z,19.89
2017-03-25T10:57:11.400Z,19.89
2017-03-25T10:58:21.369Z,19.96
2017-03-25T10:59:31.646Z,19.89
2017-03-25T11:00:41.626Z,19.94
2017-03-25T11:01:51.583Z,19.96
2017-03-25T11:03:02.109Z,19.99
2017-03-25T11:04:12.089Z,19.96
2017-03-25T11:05:21.741Z,19.92
2017-03-25T11:06:32.022Z,19.89
2017-03-25T11:07:42.305Z,20
2017-03-25T11:08:52.212Z,19.99
2017-03-25T11:10:02.187Z,19.85
2017-03-25T11:11:11.837Z,19.9
2017-03-25T11:12:21.802Z,19.93
2017-03-25T11:13:32.091Z,19.99
2017-03-25T11:14:42.614Z,20
2017-03-25T11:15:52.904Z,19.87
2017-03-25T11:17:02.556Z,19.94
2017-03-25T11:18:12.820Z,19.89
2017-03-25T11:19:23.107Z,19.93
2017-03-25T11:20:33.630Z,19.96
2017-03-25T11:21:43.598Z,19.84
2017-03-25T11:22:53.562Z,19.93
2017-03-25T11:24:03.844Z,19.99
2017-03-25T11:25:14.139Z,19.96
2017-03-25T11:26:24.733Z,19.97
2017-03-25T11:27:35.063Z,19.93
2017-03-25T11:28:45.345Z,19.97
2017-03-25T11:29:55.630Z,19.96
2017-03-25T11:31:05.590Z,19.99
2017-03-25T11:32:15.177Z,20
2017-03-25T11:33:25.144Z,19.9
2017-03-25T11:34:35.429Z,19.96
2017-03-25T11:35:45.725Z,19.96
2017-03-25T11:36:56.009Z,19.96
2017-03-25T11:38:06.619Z,19.94
2017-03-25T11:39:16.271Z,19.93
2017-03-25T11:40:26.237Z,20
2017-03-25T11:41:36.201Z,19.89
2017-03-25T11:42:46.175Z,19.97
2017-03-25T11:43:56.718Z,20.02
2017-03-25T11:45:06.995Z,19.96
2017-03-25T11:46:17.271Z,20
2017-03-25T11:47:27.547Z,19.99
2017-03-25T11:48:37.832Z,19.93
2017-03-25T11:49:47.756Z,19.96
2017-03-25T11:50:57.717Z,20.02
2017-03-25T11:52:07.378Z,19.93
2017-03-25T11:53:17.354Z,19.96
2017-03-25T11:54:27.643Z,19.96
2017-03-25T11:55:37.618Z,20.04
2017-03-25T11:56:47.895Z,20
2017-03-25T11:57:58.185Z,19.96
2017-03-25T11:59:08.530Z,19.96
2017-03-25T12:00:18.811Z,19.97
2017-03-25T12:01:28.406Z,19.96
2017-03-25T12:02:38.712Z,19.97
2017-03-25T12:03:49.002Z,19.97
2017-03-25T12:04:58.976Z,20
2017-03-25T12:06:08.946Z,19.99
2017-03-25T12:07:19.166Z,19.96
2017-03-25T12:08:29.131Z,19.99
2017-03-25T12:09:38.787Z,19.96
2017-03-25T12:10:48.759Z,19.99
2017-03-25T12:11:58.732Z,19.97
2017-03-25T12:13:08.949Z,20
2017-03-25T12:14:17.981Z,20.02
2017-03-25T12:15:28.259Z,20
2017-03-25T12:16:38.220Z,19.96
2017-03-25T12:17:48.189Z,20
2017-03-25T12:18:58.714Z,19.94
2017-03-25T12:20:08.367Z,19.97
2017-03-25T12:21:18.023Z,19.97
2017-03-25T12:22:27.993Z,19.94
2017-03-25T12:23:38.282Z,19.97
2017-03-25T12:24:48.188Z,19.94
2017-03-25T12:25:58.472Z,19.94
2017-03-25T12:27:08.737Z,19.94
2017-03-25T12:28:18.386Z,19.94
2017-03-25T12:29:28.046Z,19.94
2017-03-25T12:30:38.260Z,19.96
2017-03-25T12:31:48.541Z,19.97
2017-03-25T12:32:58.823Z,19.99
2017-03-25T12:34:09.106Z,19.97
2017-03-25T12:35:18.754Z,20
2017-03-25T12:36:29.330Z,20.02
2017-03-25T12:37:38.990Z,19.97
2017-03-25T12:38:48.955Z,19.97
2017-03-25T12:39:58.676Z,19.99
2017-03-25T12:41:08.962Z,20
2017-03-25T12:42:19.181Z,20.02
2017-03-25T12:43:29.465Z,19.99
2017-03-25T12:44:39.748Z,20.03
2017-03-25T12:45:50.022Z,19.97
2017-03-25T12:46:59.977Z,20
2017-03-25T12:48:10.197Z,20.07
2017-03-25T12:49:20.519Z,20.03
2017-03-25T12:50:30.483Z,19.96
2017-03-25T12:51:40.758Z,20
2017-03-25T12:52:51.044Z,19.92
2017-03-25T12:54:01.276Z,19.97
2017-03-25T12:55:11.551Z,20.02
2017-03-25T12:56:21.533Z,20.03
2017-03-25T12:57:31.814Z,19.99
2017-03-25T12:58:42.094Z,20.03
2017-03-25T12:59:52.643Z,19.99
2017-03-25T13:01:02.931Z,19.94
2017-03-25T13:02:12.891Z,19.93
2017-03-25T13:03:22.916Z,20
2017-03-25T13:04:33.196Z,19.99
2017-03-25T13:05:43.197Z,19.9
2017-03-25T13:06:53.470Z,19.93
2017-03-25T13:08:02.853Z,19.96
2017-03-25T13:09:12.514Z,19.99
2017-03-25T13:10:22.536Z,19.99
2017-03-25T13:11:33.112Z,19.94
2017-03-25T13:12:43.387Z,19.97
2017-03-25T13:13:53.371Z,19.99
2017-03-25T13:15:03.358Z,19.97
2017-03-25T13:16:13.007Z,19.97
2017-03-25T13:17:22.654Z,19.97
2017-03-25T13:18:32.927Z,19.97
2017-03-25T13:19:42.947Z,19.97
2017-03-25T13:20:52.946Z,20.02
2017-03-25T13:22:02.969Z,19.97
2017-03-25T13:23:13.507Z,19.96
2017-03-25T13:24:23.800Z,20.02
2017-03-25T13:25:33.778Z,19.96
2017-03-25T13:26:44.049Z,19.96
2017-03-25T13:27:54.025Z,20.03
2017-03-25T13:29:03.619Z,20
2017-03-25T13:30:13.592Z,19.97
2017-03-25T13:31:23.267Z,20.02
2017-03-25T13:32:33.231Z,19.96
2017-03-25T13:33:43.213Z,19.99
2017-03-25T13:34:53.788Z,19.97
2017-03-25T13:36:03.448Z,19.97
2017-03-25T13:37:13.735Z,20
2017-03-25T13:38:24.026Z,19.97
2017-03-25T13:39:33.983Z,20
2017-03-25T13:40:44.508Z,20.02
2017-03-25T13:41:54.783Z,19.96
2017-03-25T13:43:04.756Z,20
2017-03-25T13:44:15.032Z,20.02
2017-03-25T13:45:25.317Z,19.96
2017-03-25T13:46:35.837Z,19.96
2017-03-25T13:47:45.804Z,20.07
2017-03-25T13:48:55.784Z,19.93
2017-03-25T13:50:06.111Z,20.04
2017-03-25T13:51:16.390Z,19.94
2017-03-25T13:52:26.654Z,19.97
2017-03-25T13:53:36.937Z,19.96
2017-03-25T13:54:46.901Z,19.99
2017-03-25T13:55:56.868Z,19.99
2017-03-25T13:57:06.529Z,19.99
2017-03-25T13:58:16.799Z,19.93
2017-03-25T13:59:26.767Z,19.96
2017-03-25T14:00:36.421Z,19.93
2017-03-25T14:01:46.443Z,19.97
2017-03-25T14:02:56.405Z,19.97
2017-03-25T14:04:06.639Z,19.96
2017-03-25T14:05:16.610Z,19.96
2017-03-25T14:06:26.322Z,19.99
2017-03-25T14:07:36.605Z,19.97
2017-03-25T14:08:46.578Z,20.02
2017-03-25T14:09:56.810Z,20
2017-03-25T14:11:07.092Z,19.93
2017-03-25T14:12:17.370Z,19.97
2017-03-25T14:13:27.652Z,19.9
2017-03-25T14:14:37.626Z,19.96
2017-03-25T14:15:48.161Z,19.93
2017-03-25T14:16:58.436Z,19.99
2017-03-25T14:18:08.089Z,19.85
2017-03-25T14:19:18.363Z,19.99
2017-03-25T14:20:28.330Z,19.92
2017-03-25T14:21:38.899Z,19.82
2017-03-25T14:22:48.852Z,19.96
2017-03-25T14:23:59.144Z,19.89
2017-03-25T14:25:09.434Z,19.9
2017-03-25T14:26:19.712Z,19.82
2017-03-25T14:27:30.238Z,19.84
2017-03-25T14:28:40.510Z,19.99
2017-03-25T14:29:50.494Z,19.92
2017-03-25T14:31:00.465Z,19.94
2017-03-25T14:32:10.747Z,19.84
2017-03-25T14:33:21.371Z,19.94
2017-03-25T14:34:31.350Z,19.89
2017-03-25T14:35:41.007Z,19.96
2017-03-25T14:36:50.649Z,19.92
2017-03-25T14:38:00.665Z,19.93
2017-03-25T14:39:10.253Z,19.93
2017-03-25T14:40:19.906Z,19.92
2017-03-25T14:41:29.551Z,19.9
2017-03-25T14:42:39.825Z,19.85
2017-03-25T14:43:49.792Z,19.85
2017-03-25T14:45:00.017Z,19.92
2017-03-25T14:46:09.988Z,19.9
2017-03-25T14:47:20.266Z,19.9
2017-03-25T14:48:30.537Z,19.89
2017-03-25T14:49:40.501Z,19.89
2017-03-25T14:50:51.096Z,19.9
2017-03-25T14:52:01.377Z,19.87
2017-03-25T14:53:11.364Z,19.87
2017-03-25T14:54:21.651Z,19.9
2017-03-25T14:55:31.931Z,20.02
2017-03-25T14:56:42.206Z,19.9
2017-03-25T14:57:52.485Z,19.84
2017-03-25T14:59:02.775Z,19.9
2017-03-25T15:00:12.739Z,19.89
2017-03-25T15:01:22.083Z,19.9
2017-03-25T15:02:32.656Z,19.89
2017-03-25T15:03:42.943Z,19.89
2017-03-25T15:04:52.607Z,19.99
2017-03-25T15:06:02.569Z,19.87
2017-03-25T15:07:12.544Z,19.9
2017-03-25T15:08:23.085Z,19.99
2017-03-25T15:09:33.359Z,19.94